Time;durP1;ratioP1;P1;durP2;ratioP2;P2;SDS_P1;SDS_P2;PMS_P1;PMS_P2;Temp;Humidity;BMP_temperature;BMP_pressure;BME280_temperature;BME280_humidity;BME280_pressure;Samples;Min_cycle;Max_cycle;Signal;HPM_P1;HPM_P2
2022/11/09 00:01:19;;;;;;;8.35;2.40;;;12.90;99.90;;;;;;5046393;28;20948;-80
2022/11/09 00:03:45;;;;;;;4.30;2.05;;;12.90;99.90;;;;;;5048457;28;20132;-81
2022/11/09 00:06:11;;;;;;;7.07;2.50;;;12.90;99.90;;;;;;5049041;28;20052;-80
2022/11/09 00:08:39;;;;;;;5.43;2.40;;;12.90;99.90;;;;;;5066032;28;20537;-80
2022/11/09 00:11:07;;;;;;;7.70;2.10;;;12.90;99.90;;;;;;5066148;28;20057;-80
2022/11/09 00:13:38;;;;;;;6.43;2.67;;;12.90;99.90;;;;;;5069598;28;20076;-80
2022/11/09 00:16:06;;;;;;;7.55;2.53;;;12.90;99.90;;;;;;5051918;28;20051;-80
2022/11/09 00:18:34;;;;;;;7.88;2.67;;;12.90;99.90;;;;;;5048476;28;20143;-80
2022/11/09 00:21:05;;;;;;;4.63;2.45;;;13.00;99.90;;;;;;5049189;28;20154;-87
2022/11/09 00:23:31;;;;;;;8.38;2.70;;;13.00;99.90;;;;;;5050078;28;20049;-80
2022/11/09 00:26:05;;;;;;;5.68;2.50;;;13.10;99.90;;;;;;5029022;28;20071;-82
2022/11/09 00:28:30;;;;;;;6.32;2.50;;;13.00;99.90;;;;;;5059611;28;20052;-80
2022/11/09 00:31:05;;;;;;;8.23;2.85;;;13.00;99.90;;;;;;5034536;28;20056;-83
2022/11/09 00:33:32;;;;;;;8.52;2.50;;;13.00;99.90;;;;;;5027653;28;20048;-81
2022/11/09 00:35:57;;;;;;;6.40;2.50;;;12.90;99.90;;;;;;5046153;28;20406;-80
2022/11/09 00:38:23;;;;;;;15.82;2.88;;;12.80;99.90;;;;;;5050746;28;20049;-80
2022/11/09 00:40:49;;;;;;;5.22;2.17;;;12.70;99.90;;;;;;5047539;28;20125;-80
2022/11/09 00:43:15;;;;;;;6.57;2.40;;;12.50;99.90;;;;;;5046480;28;20044;-81
2022/11/09 00:45:41;;;;;;;7.07;2.30;;;12.40;99.90;;;;;;5047936;28;20049;-79
2022/11/09 00:48:07;;;;;;;8.27;2.47;;;12.40;99.90;;;;;;5019242;28;20106;-80
2022/11/09 00:50:33;;;;;;;5.82;2.30;;;12.40;99.90;;;;;;5028858;28;20130;-80
2022/11/09 00:53:00;;;;;;;5.72;2.38;;;12.30;99.90;;;;;;5043288;28;20140;-80
2022/11/09 00:55:25;;;;;;;7.97;2.78;;;12.30;99.90;;;;;;5044092;28;20391;-81
2022/11/09 00:57:52;;;;;;;6.63;2.30;;;12.20;99.90;;;;;;5058934;28;20124;-80
2022/11/09 01:00:19;;;;;;;10.35;2.30;;;12.20;99.90;;;;;;5048038;28;20040;-81
2022/11/09 01:02:45;;;;;;;7.53;3.10;;;12.00;99.90;;;;;;5051679;28;20048;-80
2022/11/09 01:05:11;;;;;;;4.72;2.15;;;12.00;99.90;;;;;;5037128;28;20128;-79
2022/11/09 01:07:37;;;;;;;8.68;2.40;;;12.00;99.90;;;;;;5030236;28;20132;-80
2022/11/09 01:10:04;;;;;;;6.47;2.55;;;12.10;99.90;;;;;;5048583;28;20486;-80
2022/11/09 01:12:30;;;;;;;7.22;2.58;;;12.20;99.90;;;;;;5048784;28;20135;-80
2022/11/09 01:14:56;;;;;;;8.02;2.35;;;12.20;99.90;;;;;;5045266;28;20128;-80
2022/11/09 01:17:22;;;;;;;9.30;2.75;;;12.20;99.90;;;;;;5048759;28;20510;-81
2022/11/09 01:19:48;;;;;;;7.63;2.70;;;12.10;99.90;;;;;;5064192;28;20072;-81
2022/11/09 01:22:14;;;;;;;5.78;2.00;;;12.00;99.90;;;;;;5026203;28;20055;-80
2022/11/09 01:24:40;;;;;;;7.20;2.42;;;12.00;99.90;;;;;;5062324;28;20059;-80
2022/11/09 01:27:05;;;;;;;10.27;2.50;;;11.90;99.90;;;;;;5031177;28;20049;-80
2022/11/09 01:29:31;;;;;;;7.85;2.90;;;11.80;99.90;;;;;;5046677;28;20041;-80
2022/11/09 01:31:57;;;;;;;11.60;2.60;;;11.80;99.90;;;;;;5060368;28;20060;-80
2022/11/09 01:34:22;;;;;;;5.25;2.20;;;11.70;99.90;;;;;;5044072;28;20045;-80
2022/11/09 01:36:51;;;;;;;9.18;2.30;;;11.60;99.90;;;;;;5048745;28;20063;-80
2022/11/09 01:39:18;;;;;;;15.63;2.80;;;11.60;99.90;;;;;;5064858;28;20513;-80
2022/11/09 01:41:44;;;;;;;9.07;2.30;;;11.60;99.90;;;;;;5064989;28;20045;-80
2022/11/09 01:44:19;;;;;;;7.25;2.40;;;11.60;99.90;;;;;;5063896;28;20620;-86
2022/11/09 01:47:31;;;;;;;5.90;2.00;;;11.70;99.90;;;;;;5063820;28;20125;-80
2022/11/09 01:49:58;;;;;;;10.02;2.20;;;11.90;99.90;;;;;;5003477;28;20059;-81
2022/11/09 01:52:29;;;;;;;6.32;2.40;;;12.10;99.90;;;;;;5047599;28;20476;-80
2022/11/09 01:55:06;;;;;;;11.75;2.70;;;12.10;99.90;;;;;;5037198;28;20053;-80
2022/11/09 01:57:37;;;;;;;5.88;2.00;;;12.10;99.90;;;;;;5033289;28;20195;-80
2022/11/09 02:00:11;;;;;;;10.02;2.70;;;12.10;99.90;;;;;;5058295;28;20049;-81
2022/11/09 02:02:42;;;;;;;7.10;2.47;;;12.00;99.90;;;;;;5032003;28;20045;-81
2022/11/09 02:05:12;;;;;;;5.50;2.47;;;11.80;99.90;;;;;;5051297;28;20091;-81
2022/11/09 02:07:40;;;;;;;5.40;2.30;;;11.70;99.90;;;;;;5035438;28;20053;-80
2022/11/09 02:10:51;;;;;;;8.43;2.33;;;11.60;99.90;;;;;;5050481;28;20056;-79
2022/11/09 02:13:20;;;;;;;5.63;2.30;;;11.60;99.90;;;;;;5034892;28;20528;-82
2022/11/09 02:15:48;;;;;;;6.47;2.60;;;11.50;99.90;;;;;;5049250;28;20049;-81
2022/11/09 02:18:14;;;;;;;15.80;2.90;;;11.40;99.90;;;;;;5047146;28;20052;-80
2022/11/09 02:20:47;;;;;;;6.63;2.40;;;11.40;99.90;;;;;;5015221;28;20138;-80
2022/11/09 02:23:13;;;;;;;6.97;2.58;;;11.40;99.90;;;;;;5046919;28;20065;-79
2022/11/09 02:25:39;;;;;;;8.82;2.80;;;11.40;99.90;;;;;;5034362;28;20552;-80
2022/11/09 02:28:05;;;;;;;8.18;2.95;;;11.40;99.90;;;;;;5031389;28;20041;-80
2022/11/09 02:30:33;;;;;;;6.63;2.67;;;11.30;99.90;;;;;;5026865;28;20091;-80
2022/11/09 02:32:59;;;;;;;8.85;3.22;;;11.30;99.90;;;;;;5042960;28;20045;-79
2022/11/09 02:35:24;;;;;;;10.55;2.85;;;11.20;99.90;;;;;;5050455;28;20071;-79
2022/11/09 02:37:50;;;;;;;6.50;2.83;;;11.30;99.90;;;;;;5063034;28;20132;-81
2022/11/09 02:40:21;;;;;;;8.48;2.40;;;11.30;99.90;;;;;;5021898;28;20045;-81
2022/11/09 02:42:47;;;;;;;8.60;2.60;;;11.30;99.90;;;;;;5051266;28;20460;-84
2022/11/09 02:45:13;;;;;;;12.25;3.47;;;11.30;99.90;;;;;;5062769;28;20048;-80
2022/11/09 02:47:38;;;;;;;8.35;2.65;;;11.40;99.90;;;;;;5053805;28;20048;-79
2022/11/09 02:50:04;;;;;;;8.07;2.35;;;11.40;99.90;;;;;;5055677;28;20049;-80
2022/11/09 02:52:30;;;;;;;5.32;2.33;;;11.50;99.90;;;;;;5038494;28;20084;-80
2022/11/09 02:54:56;;;;;;;7.20;2.55;;;11.50;99.90;;;;;;5065321;28;20084;-83
2022/11/09 02:57:22;;;;;;;7.35;2.47;;;11.50;99.90;;;;;;5050987;28;20052;-83
2022/11/09 02:59:48;;;;;;;9.13;2.25;;;11.40;99.90;;;;;;5047083;28;20103;-80
2022/11/09 03:02:13;;;;;;;9.13;1.85;;;11.50;99.90;;;;;;5040445;28;20039;-79
2022/11/09 03:04:39;;;;;;;12.85;2.97;;;11.40;99.90;;;;;;5056723;28;20120;-79
2022/11/09 03:07:07;;;;;;;11.10;2.97;;;11.40;99.90;;;;;;5017734;28;20067;-82
2022/11/09 03:09:32;;;;;;;10.95;2.45;;;11.40;99.90;;;;;;5049417;28;20060;-80
2022/11/09 03:11:58;;;;;;;10.30;2.38;;;11.30;99.90;;;;;;5050941;28;20037;-80
2022/11/09 03:14:23;;;;;;;12.40;2.35;;;11.30;99.90;;;;;;5050296;28;20041;-86
2022/11/09 03:16:49;;;;;;;9.70;2.45;;;11.40;99.90;;;;;;5039633;28;20037;-79
2022/11/09 03:19:15;;;;;;;12.15;2.55;;;11.40;99.90;;;;;;5042569;28;20544;-79
2022/11/09 03:21:41;;;;;;;7.00;2.00;;;11.40;99.90;;;;;;5033662;28;20135;-80
2022/11/09 03:24:06;;;;;;;8.40;2.25;;;11.40;99.90;;;;;;5064076;28;20064;-80
2022/11/09 03:26:32;;;;;;;8.90;2.17;;;11.50;99.90;;;;;;5048736;28;20128;-80
2022/11/09 03:28:58;;;;;;;12.85;2.47;;;11.50;99.90;;;;;;5023060;28;20531;-80
2022/11/09 03:31:23;;;;;;;9.52;2.40;;;11.60;99.90;;;;;;5034063;28;20095;-79
2022/11/09 03:33:49;;;;;;;6.55;1.92;;;11.50;99.90;;;;;;5041557;28;20045;-80
2022/11/09 03:36:15;;;;;;;8.10;2.10;;;11.50;99.90;;;;;;5032809;28;20513;-81
2022/11/09 03:38:40;;;;;;;10.60;2.13;;;11.30;99.90;;;;;;5043676;28;20152;-79
2022/11/09 03:41:06;;;;;;;7.40;2.45;;;11.40;99.90;;;;;;5054153;28;20043;-81
2022/11/09 03:43:32;;;;;;;8.70;2.05;;;11.40;99.90;;;;;;5031091;28;20060;-82
2022/11/09 03:45:57;;;;;;;8.27;2.08;;;11.50;99.90;;;;;;5042012;28;20090;-80
2022/11/09 03:48:23;;;;;;;10.57;1.92;;;11.50;99.90;;;;;;5052568;28;21173;-80
2022/11/09 03:50:49;;;;;;;9.13;1.90;;;11.50;99.90;;;;;;5066024;28;20102;-80
2022/11/09 03:53:15;;;;;;;8.82;2.25;;;11.50;99.90;;;;;;5057752;28;20049;-81
2022/11/09 03:55:40;;;;;;;12.18;2.63;;;11.50;99.90;;;;;;5056907;28;20083;-82
2022/11/09 03:58:08;;;;;;;12.18;2.35;;;11.40;99.90;;;;;;5064272;28;20053;-80
2022/11/09 04:00:35;;;;;;;12.30;2.42;;;11.30;99.90;;;;;;5044179;28;20410;-79
2022/11/09 04:03:01;;;;;;;11.77;2.47;;;11.20;99.90;;;;;;5046860;28;20064;-80
2022/11/09 04:05:26;;;;;;;9.45;1.90;;;11.30;99.90;;;;;;5035300;28;20053;-81
2022/11/09 04:07:55;;;;;;;13.00;2.28;;;11.20;99.90;;;;;;5051297;28;20049;-80
2022/11/09 04:10:22;;;;;;;9.40;2.63;;;11.20;99.90;;;;;;5050287;28;20082;-80
2022/11/09 04:12:48;;;;;;;8.40;2.00;;;11.20;99.90;;;;;;5022841;28;20085;-79
2022/11/09 04:15:14;;;;;;;5.75;2.10;;;11.10;99.90;;;;;;5048115;28;20575;-79
2022/11/09 04:17:40;;;;;;;8.75;2.17;;;11.10;99.90;;;;;;5042083;28;20414;-79
2022/11/09 04:20:07;;;;;;;9.15;2.10;;;11.10;99.90;;;;;;5050408;28;20048;-80
2022/11/09 04:22:33;;;;;;;12.57;2.20;;;11.10;99.90;;;;;;5064541;28;20123;-84
2022/11/09 04:24:59;;;;;;;11.82;2.83;;;11.00;99.90;;;;;;5064014;28;20041;-80
2022/11/09 04:27:25;;;;;;;8.30;2.08;;;11.00;99.90;;;;;;5046723;28;20716;-80
2022/11/09 04:29:50;;;;;;;12.55;2.60;;;11.00;99.90;;;;;;5045226;28;20045;-80
2022/11/09 04:32:16;;;;;;;9.73;2.45;;;11.10;99.90;;;;;;5050434;28;20056;-82
2022/11/09 04:34:42;;;;;;;11.55;2.72;;;11.00;99.90;;;;;;5033885;28;20044;-79
2022/11/09 04:37:08;;;;;;;9.75;2.47;;;11.00;99.90;;;;;;5049313;28;20049;-80
2022/11/09 04:39:34;;;;;;;7.72;2.58;;;11.00;99.90;;;;;;5048991;28;20080;-83
2022/11/09 04:42:00;;;;;;;11.23;3.08;;;11.00;99.90;;;;;;5052044;28;20513;-79
2022/11/09 04:44:26;;;;;;;12.80;2.60;;;11.00;99.90;;;;;;5045949;28;20622;-80
2022/11/09 04:46:52;;;;;;;9.60;2.70;;;11.00;99.90;;;;;;5044815;28;20509;-80
2022/11/09 04:49:17;;;;;;;9.90;2.50;;;11.00;99.90;;;;;;5053572;28;20059;-80
2022/11/09 04:51:43;;;;;;;8.93;2.13;;;11.10;99.90;;;;;;5013473;28;20046;-80
2022/11/09 04:54:09;;;;;;;10.85;2.47;;;11.00;99.90;;;;;;5052515;28;20041;-80
2022/11/09 04:56:35;;;;;;;12.55;3.03;;;11.00;99.90;;;;;;5040052;28;20053;-82
2022/11/09 04:59:01;;;;;;;9.02;2.58;;;11.00;99.90;;;;;;5060134;28;20045;-80
2022/11/09 05:01:26;;;;;;;7.50;2.20;;;11.10;99.90;;;;;;5038957;28;20504;-79
2022/11/09 05:03:52;;;;;;;8.15;2.20;;;11.10;99.90;;;;;;5044880;28;20121;-82
2022/11/09 05:06:30;;;;;;;5.32;2.20;;;11.30;99.90;;;;;;5036315;28;20041;-80
2022/11/09 05:08:56;;;;;;;13.10;2.17;;;11.40;99.90;;;;;;5055696;28;20486;-80
2022/11/09 05:11:22;;;;;;;10.85;3.15;;;11.50;99.90;;;;;;5050333;28;20045;-80
2022/11/09 05:13:48;;;;;;;7.45;2.33;;;11.70;99.90;;;;;;5046278;28;20053;-79
2022/11/09 05:16:16;;;;;;;10.45;2.20;;;11.80;99.90;;;;;;5039558;28;20040;-80
2022/11/09 05:18:42;;;;;;;10.27;2.20;;;11.90;99.90;;;;;;5031239;28;20133;-79
2022/11/09 05:21:08;;;;;;;8.30;3.25;;;12.00;99.90;;;;;;5057145;28;20450;-80
2022/11/09 05:26:17;;;;;;;10.70;2.33;;;12.10;99.90;;;;;;5045948;28;20072;-82
2022/11/09 05:28:43;;;;;;;10.90;2.65;;;12.30;99.90;;;;;;5063375;28;20486;-80
2022/11/09 05:31:09;;;;;;;6.75;2.50;;;12.20;99.90;;;;;;5045775;28;20097;-80
2022/11/09 05:33:35;;;;;;;9.25;2.20;;;12.20;99.90;;;;;;5035725;28;20049;-82
2022/11/09 05:36:00;;;;;;;7.65;2.00;;;12.20;99.90;;;;;;5048225;28;20191;-79
2022/11/09 05:38:26;;;;;;;10.80;2.30;;;12.20;99.90;;;;;;5028143;28;20053;-81
2022/11/09 05:40:53;;;;;;;8.57;2.00;;;12.10;99.90;;;;;;5047377;28;20064;-81
2022/11/09 05:43:19;;;;;;;9.75;2.13;;;12.10;99.90;;;;;;5042377;28;20052;-79
2022/11/09 05:45:45;;;;;;;8.07;2.38;;;12.00;99.90;;;;;;5051257;28;20088;-82
2022/11/09 05:48:12;;;;;;;7.13;2.75;;;11.90;99.90;;;;;;5051757;28;20073;-82
2022/11/09 05:50:40;;;;;;;9.40;1.90;;;11.90;99.90;;;;;;5049626;28;20053;-80
2022/11/09 05:53:06;;;;;;;6.32;2.20;;;11.80;99.90;;;;;;5045849;28;20124;-80
2022/11/09 05:55:32;;;;;;;9.98;2.28;;;11.80;99.90;;;;;;5052454;28;20108;-80
2022/11/09 05:57:58;;;;;;;8.38;2.15;;;11.70;99.90;;;;;;5051475;28;20061;-80
2022/11/09 06:00:24;;;;;;;10.65;2.22;;;11.60;99.90;;;;;;5046254;28;20051;-79
2022/11/09 06:02:50;;;;;;;7.32;2.30;;;11.60;99.90;;;;;;5051681;28;20136;-81
2022/11/09 06:05:16;;;;;;;12.57;2.63;;;11.50;99.90;;;;;;5049910;28;20140;-80
2022/11/09 06:07:42;;;;;;;7.88;2.38;;;11.50;99.90;;;;;;5051734;28;20053;-82
2022/11/09 06:10:08;;;;;;;11.95;2.40;;;11.40;99.90;;;;;;5046835;28;20052;-80
2022/11/09 06:12:34;;;;;;;5.88;2.40;;;11.40;99.90;;;;;;5034506;28;20424;-80
2022/11/09 06:15:00;;;;;;;9.43;2.20;;;11.30;99.90;;;;;;5051015;28;20742;-80
2022/11/09 06:17:26;;;;;;;8.65;2.10;;;11.30;99.90;;;;;;5052938;28;20128;-82
2022/11/09 06:19:51;;;;;;;14.90;2.42;;;11.30;99.90;;;;;;5031506;28;20128;-83
2022/11/09 06:22:17;;;;;;;7.28;2.28;;;11.30;99.90;;;;;;5034853;28;20068;-82
2022/11/09 06:24:43;;;;;;;8.00;2.40;;;11.20;99.90;;;;;;5051848;28;20049;-80
2022/11/09 06:27:08;;;;;;;11.05;2.28;;;11.20;99.90;;;;;;5052252;28;20044;-81
2022/11/09 06:29:34;;;;;;;11.85;2.42;;;11.20;99.90;;;;;;5054570;28;20119;-80
2022/11/09 06:32:00;;;;;;;6.97;2.70;;;11.20;99.90;;;;;;5036941;28;20072;-81
2022/11/09 06:34:25;;;;;;;10.40;1.95;;;11.20;99.90;;;;;;5052495;28;20551;-85
2022/11/09 06:36:51;;;;;;;6.55;2.10;;;11.10;99.90;;;;;;5052447;28;20065;-81
2022/11/09 06:39:17;;;;;;;7.50;2.05;;;11.10;99.90;;;;;;5050880;28;20049;-81
2022/11/09 06:41:42;;;;;;;7.45;2.00;;;11.10;99.90;;;;;;5026797;28;20049;-82
2022/11/09 06:44:08;;;;;;;10.90;2.33;;;11.00;99.90;;;;;;5046959;28;20390;-81
2022/11/09 06:46:34;;;;;;;12.73;2.30;;;11.10;99.90;;;;;;5035737;28;20497;-79
2022/11/09 06:48:59;;;;;;;9.57;2.78;;;11.10;99.90;;;;;;5044786;28;20056;-81
2022/11/09 06:51:25;;;;;;;10.00;1.98;;;11.10;99.90;;;;;;5029966;28;20131;-80
2022/11/09 06:53:51;;;;;;;7.97;2.28;;;11.10;99.90;;;;;;5046218;28;20099;-87
2022/11/09 06:56:16;;;;;;;7.45;2.00;;;11.20;99.90;;;;;;5034496;28;20045;-83
2022/11/09 06:58:42;;;;;;;11.52;2.10;;;11.30;99.90;;;;;;5050921;28;20053;-79
2022/11/09 07:01:10;;;;;;;14.05;2.25;;;11.20;99.90;;;;;;5046700;28;20037;-80
2022/11/09 07:03:36;;;;;;;12.07;2.60;;;11.20;99.90;;;;;;5048583;28;20078;-81
2022/11/09 07:06:08;;;;;;;9.85;2.47;;;11.10;99.90;;;;;;5051163;28;20514;-82
2022/11/09 07:08:34;;;;;;;13.15;2.75;;;11.10;99.90;;;;;;5052458;28;20983;-80
2022/11/09 07:11:18;;;;;;;13.75;2.33;;;11.10;99.90;;;;;;5046130;28;20052;-80
2022/11/09 07:13:46;;;;;;;13.88;2.55;;;11.10;99.90;;;;;;5057472;28;20073;-79
2022/11/09 07:16:15;;;;;;;14.77;3.10;;;11.10;99.90;;;;;;5045843;28;20110;-81
2022/11/09 07:18:42;;;;;;;11.82;2.28;;;11.00;99.90;;;;;;5034816;28;20509;-79
2022/11/09 07:21:08;;;;;;;9.13;1.95;;;11.00;99.90;;;;;;5052410;28;20086;-81
2022/11/09 07:23:34;;;;;;;11.65;2.15;;;11.00;99.90;;;;;;5049062;28;20144;-80
2022/11/09 07:25:59;;;;;;;9.93;2.17;;;11.00;99.90;;;;;;5050145;28;20064;-79
2022/11/09 07:28:25;;;;;;;11.85;2.47;;;11.00;99.90;;;;;;5047927;28;20052;-80
2022/11/09 07:30:51;;;;;;;8.25;2.10;;;11.00;99.90;;;;;;5056215;28;20049;-79
2022/11/09 07:33:19;;;;;;;13.05;2.10;;;11.00;99.90;;;;;;5033547;28;20830;-81
2022/11/09 07:35:45;;;;;;;9.70;2.10;;;11.00;99.90;;;;;;5055646;28;20055;-81
2022/11/09 07:38:12;;;;;;;9.15;1.90;;;11.00;99.90;;;;;;5045968;28;20048;-83
2022/11/09 07:40:38;;;;;;;9.57;2.00;;;11.00;99.90;;;;;;5050822;28;20681;-80
2022/11/09 07:43:05;;;;;;;12.07;2.55;;;11.00;99.90;;;;;;5048500;28;20053;-81
2022/11/09 07:45:32;;;;;;;11.20;2.05;;;11.00;99.90;;;;;;5020167;28;20067;-82
2022/11/09 07:48:00;;;;;;;8.00;2.10;;;11.00;99.90;;;;;;5025046;28;20053;-87
2022/11/09 07:50:27;;;;;;;11.40;2.28;;;11.00;99.90;;;;;;5050436;28;20049;-80
2022/11/09 07:52:55;;;;;;;14.60;2.30;;;11.00;99.90;;;;;;5034366;28;20553;-81
2022/11/09 07:55:21;;;;;;;10.27;2.20;;;11.00;99.90;;;;;;5050495;28;20059;-80
2022/11/09 07:57:47;;;;;;;9.48;1.83;;;11.10;99.90;;;;;;5041913;28;20136;-81
2022/11/09 08:00:13;;;;;;;14.60;2.45;;;11.10;99.90;;;;;;5034722;28;20139;-80
2022/11/09 08:02:39;;;;;;;11.05;2.45;;;11.10;99.90;;;;;;5038046;28;20060;-80
2022/11/09 08:05:05;;;;;;;14.00;2.80;;;11.10;99.90;;;;;;5031852;28;20056;-79
2022/11/09 08:07:32;;;;;;;12.10;2.38;;;11.20;99.90;;;;;;5035184;28;20383;-80
2022/11/09 08:09:58;;;;;;;14.40;2.92;;;11.30;99.90;;;;;;5040781;28;20060;-81
2022/11/09 08:12:23;;;;;;;9.30;2.95;;;11.30;99.90;;;;;;5052265;28;20049;-80
2022/11/09 08:14:49;;;;;;;13.18;2.72;;;11.30;99.90;;;;;;5046157;28;20045;-80
2022/11/09 08:17:15;;;;;;;10.10;2.55;;;11.30;99.90;;;;;;5051804;28;20245;-81
2022/11/09 08:19:40;;;;;;;6.93;2.55;;;11.30;99.90;;;;;;5049514;28;20071;-80
2022/11/09 08:22:06;;;;;;;15.48;2.92;;;11.40;99.90;;;;;;5057179;28;20048;-80
2022/11/09 08:24:32;;;;;;;10.45;3.33;;;11.40;99.90;;;;;;5032729;28;20049;-81
2022/11/09 08:26:58;;;;;;;14.50;3.60;;;11.40;99.90;;;;;;5049324;28;20119;-82
2022/11/09 08:29:23;;;;;;;10.75;2.38;;;11.50;99.90;;;;;;5030905;28;20057;-79
2022/11/09 08:31:50;;;;;;;11.00;2.67;;;11.50;99.90;;;;;;5050916;28;20057;-79
2022/11/09 08:34:16;;;;;;;13.15;2.78;;;11.50;99.90;;;;;;5031044;28;20048;-80
2022/11/09 08:36:42;;;;;;;16.02;3.15;;;11.50;99.90;;;;;;5041489;28;20052;-82
2022/11/09 08:39:08;;;;;;;12.07;3.05;;;11.60;99.90;;;;;;5031680;28;20037;-81
2022/11/09 08:41:34;;;;;;;9.90;2.50;;;11.60;99.90;;;;;;5061608;28;20056;-80
2022/11/09 08:44:00;;;;;;;11.63;2.92;;;11.70;99.90;;;;;;5029191;28;20118;-81
2022/11/09 08:46:26;;;;;;;12.05;3.42;;;11.70;99.90;;;;;;5043790;28;20045;-79
2022/11/09 08:48:51;;;;;;;12.27;2.90;;;11.70;99.90;;;;;;5047883;28;20048;-79
2022/11/09 08:51:17;;;;;;;11.70;3.28;;;11.70;99.90;;;;;;5057282;28;20044;-79
2022/11/09 08:53:43;;;;;;;14.13;4.00;;;11.80;99.90;;;;;;5031432;28;20059;-80
2022/11/09 08:56:10;;;;;;;12.18;2.80;;;11.80;99.90;;;;;;5032554;28;20091;-81
2022/11/09 08:58:36;;;;;;;12.38;2.88;;;11.90;99.90;;;;;;5054145;28;20052;-78
2022/11/09 09:01:06;;;;;;;13.02;2.85;;;11.90;99.90;;;;;;5051633;28;20057;-79
2022/11/09 09:03:32;;;;;;;13.55;3.10;;;11.90;99.90;;;;;;5036268;28;20045;-78
2022/11/09 09:06:01;;;;;;;12.80;3.10;;;12.00;99.90;;;;;;5040733;28;20506;-79
2022/11/09 09:08:26;;;;;;;11.43;2.80;;;12.00;99.90;;;;;;5031766;28;20037;-81
2022/11/09 09:10:52;;;;;;;14.13;3.08;;;12.10;99.90;;;;;;5041074;28;20105;-80
2022/11/09 09:13:21;;;;;;;8.48;2.15;;;12.10;99.90;;;;;;5042395;28;20132;-82
2022/11/09 09:15:47;;;;;;;13.15;2.72;;;12.20;99.90;;;;;;5036331;28;20049;-79
2022/11/09 09:18:13;;;;;;;10.60;2.97;;;12.30;99.90;;;;;;5048340;28;20052;-79
2022/11/09 09:20:38;;;;;;;15.38;3.53;;;12.30;99.90;;;;;;5032484;28;20048;-80
2022/11/09 09:23:04;;;;;;;17.83;3.45;;;12.40;99.90;;;;;;5045153;28;20045;-79
2022/11/09 09:25:30;;;;;;;9.88;2.63;;;12.40;99.90;;;;;;5054221;28;20056;-79
2022/11/09 09:27:55;;;;;;;9.85;2.28;;;12.40;99.90;;;;;;5065626;28;20045;-79
2022/11/09 09:30:21;;;;;;;10.80;3.15;;;12.50;99.90;;;;;;5057944;28;20052;-79
2022/11/09 09:32:47;;;;;;;14.13;3.03;;;12.50;99.90;;;;;;5049102;28;20123;-81
2022/11/09 09:35:13;;;;;;;13.20;3.40;;;12.70;99.90;;;;;;5050732;28;20049;-78
2022/11/09 09:37:38;;;;;;;12.73;2.90;;;12.80;99.90;;;;;;5046495;28;20132;-80
2022/11/09 09:40:05;;;;;;;11.48;2.90;;;12.80;99.90;;;;;;5035907;28;20125;-79
2022/11/09 09:42:35;;;;;;;8.35;2.85;;;13.00;99.90;;;;;;5052051;28;20044;-84
2022/11/09 09:45:13;;;;;;;12.50;3.20;;;13.00;99.90;;;;;;5045877;28;20049;-79
2022/11/09 09:47:58;;;;;;;11.70;3.10;;;13.00;99.90;;;;;;5042545;28;20045;-78
2022/11/09 09:50:37;;;;;;;10.00;2.85;;;13.00;99.90;;;;;;5052365;28;20057;-79
2022/11/09 09:53:35;;;;;;;12.82;3.30;;;13.10;99.90;;;;;;5044442;28;20049;-81
2022/11/09 09:56:12;;;;;;;18.50;4.07;;;13.30;99.90;;;;;;5032760;28;20049;-80
2022/11/09 09:59:01;;;;;;;12.18;3.70;;;13.40;99.90;;;;;;5046048;28;20116;-82
2022/11/09 10:01:35;;;;;;;13.70;3.67;;;13.40;99.90;;;;;;5030457;28;20067;-80
2022/11/09 10:04:01;;;;;;;17.98;3.67;;;13.50;99.90;;;;;;5050038;28;20493;-79
2022/11/09 10:06:41;;;;;;;12.40;3.10;;;13.50;99.90;;;;;;5028788;28;20044;-81
2022/11/09 10:09:19;;;;;;;13.63;3.55;;;13.60;99.90;;;;;;5044673;28;20057;-79
2022/11/09 10:12:05;;;;;;;13.07;3.63;;;13.60;99.90;;;;;;5043920;28;20052;-79
2022/11/09 10:14:49;;;;;;;15.88;3.33;;;13.70;99.90;;;;;;5046018;28;20413;-78
2022/11/09 10:17:41;;;;;;;10.55;3.25;;;13.80;99.90;;;;;;5049235;28;20048;-81
2022/11/09 10:20:35;;;;;;;8.45;3.05;;;14.00;99.90;;;;;;5018725;28;20518;-82
2022/11/09 10:23:39;;;;;;;13.57;3.28;;;14.10;99.90;;;;;;5038329;28;20048;-82
2022/11/09 10:26:13;;;;;;;16.30;4.05;;;14.20;99.90;;;;;;5036926;28;20395;-80
2022/11/09 10:28:41;;;;;;;11.20;3.28;;;14.20;99.90;;;;;;5050946;28;20565;-81
2022/11/09 10:31:20;;;;;;;9.25;2.92;;;14.10;99.90;;;;;;5035162;28;20510;-81
2022/11/09 10:33:53;;;;;;;13.65;3.30;;;14.10;99.90;;;;;;5035123;28;20041;-80
2022/11/09 10:36:38;;;;;;;12.52;3.55;;;14.30;99.90;;;;;;5058876;28;20493;-80
2022/11/09 10:39:04;;;;;;;7.72;3.13;;;14.40;99.90;;;;;;5027652;28;20522;-81
2022/11/09 10:41:45;;;;;;;10.38;3.17;;;14.50;99.90;;;;;;5066944;28;20534;-81
2022/11/09 10:44:17;;;;;;;13.05;3.78;;;14.60;99.90;;;;;;5065262;28;20080;-80
2022/11/09 10:47:09;;;;;;;10.55;2.75;;;14.60;99.90;;;;;;5049270;28;20052;-83
2022/11/09 10:49:36;;;;;;;13.75;2.97;;;14.60;99.90;;;;;;5052924;28;20044;-81
2022/11/09 10:52:02;;;;;;;13.63;3.55;;;14.60;99.90;;;;;;5059650;28;20041;-80
2022/11/09 10:54:34;;;;;;;14.35;3.65;;;14.60;99.90;;;;;;5039928;28;20048;-80
2022/11/09 10:57:15;;;;;;;10.70;3.20;;;14.50;99.90;;;;;;5043588;28;20135;-80
2022/11/09 10:59:53;;;;;;;13.98;3.45;;;14.50;99.90;;;;;;5054503;28;20049;-80
2022/11/09 11:02:24;;;;;;;12.40;3.40;;;14.50;99.90;;;;;;5048809;28;20707;-83
2022/11/09 11:05:16;;;;;;;13.20;3.45;;;14.50;99.90;;;;;;5053781;28;20041;-81
2022/11/09 11:07:42;;;;;;;11.30;2.97;;;14.40;99.90;;;;;;5036974;28;20049;-81
2022/11/09 11:10:13;;;;;;;16.13;3.17;;;14.40;99.90;;;;;;5040788;28;21264;-80
2022/11/09 11:12:45;;;;;;;13.88;3.17;;;14.40;99.90;;;;;;5047647;28;20176;-80
2022/11/09 11:15:40;;;;;;;11.43;2.78;;;14.40;99.90;;;;;;5039819;28;20044;-80
2022/11/09 11:18:17;;;;;;;13.77;3.17;;;14.40;99.90;;;;;;5047680;28;20041;-80
2022/11/09 11:20:43;;;;;;;14.43;2.88;;;14.50;99.90;;;;;;5041944;28;20044;-80
2022/11/09 11:23:11;;;;;;;12.27;3.20;;;14.60;99.90;;;;;;5025284;28;20186;-83
2022/11/09 11:25:52;;;;;;;13.95;3.28;;;14.70;99.90;;;;;;5043289;28;20049;-79
2022/11/09 11:28:23;;;;;;;13.15;3.05;;;14.70;99.90;;;;;;5043704;28;20045;-80
2022/11/09 11:30:49;;;;;;;17.02;3.47;;;14.70;99.90;;;;;;5058231;28;20135;-78
2022/11/09 11:33:17;;;;;;;10.98;3.28;;;14.70;99.90;;;;;;5062434;28;20055;-80
2022/11/09 11:36:03;;;;;;;14.35;3.40;;;14.70;99.90;;;;;;5060845;28;20366;-79
2022/11/09 11:39:16;;;;;;;12.32;3.17;;;14.70;99.90;;;;;;5044075;28;20085;-83
2022/11/09 11:42:02;;;;;;;12.70;2.78;;;14.90;99.90;;;;;;4972401;28;20054;-79
2022/11/09 11:44:43;;;;;;;8.25;3.13;;;14.80;99.90;;;;;;5055234;28;20056;-83
2022/11/09 11:47:21;;;;;;;16.33;4.38;;;14.70;99.90;;;;;;5049349;28;20182;-83
2022/11/09 11:49:55;;;;;;;11.50;2.95;;;14.60;99.90;;;;;;5043528;28;20052;-83
2022/11/09 11:52:27;;;;;;;8.95;2.70;;;14.50;99.90;;;;;;5033195;28;20049;-83
2022/11/09 11:55:11;;;;;;;12.48;2.80;;;14.50;99.90;;;;;;5061342;28;20049;-82
2022/11/09 11:57:40;;;;;;;11.05;2.42;;;14.40;99.90;;;;;;5032635;28;20140;-83
2022/11/09 12:00:14;;;;;;;9.57;2.80;;;14.30;99.90;;;;;;5061646;28;20616;-81
2022/11/09 12:02:52;;;;;;;10.75;2.70;;;14.30;99.90;;;;;;5028554;28;20049;-81
2022/11/09 12:05:32;;;;;;;13.25;2.50;;;14.30;99.90;;;;;;5048596;28;20509;-77
2022/11/09 12:08:04;;;;;;;9.25;2.42;;;14.50;99.90;;;;;;5044299;28;20063;-81
2022/11/09 12:10:41;;;;;;;11.52;2.83;;;14.60;99.90;;;;;;5051787;28;20052;-79
2022/11/09 12:13:13;;;;;;;7.65;2.20;;;14.60;99.90;;;;;;5066333;28;20075;-81
2022/11/09 12:15:58;;;;;;;9.10;2.67;;;14.60;99.90;;;;;;5048170;28;20131;-81
2022/11/09 12:18:39;;;;;;;11.82;3.08;;;14.60;99.90;;;;;;5047253;28;20041;-80
2022/11/09 12:21:16;;;;;;;13.43;2.92;;;14.70;99.90;;;;;;5060401;28;20139;-80
2022/11/09 12:23:50;;;;;;;12.98;2.95;;;14.60;99.90;;;;;;5036677;28;20048;-80
2022/11/09 12:26:34;;;;;;;12.70;2.78;;;14.60;99.90;;;;;;5047959;28;20041;-80
2022/11/09 12:29:00;;;;;;;8.50;2.08;;;14.50;99.90;;;;;;5046558;28;20436;-80
2022/11/09 12:31:40;;;;;;;10.02;3.10;;;14.40;99.90;;;;;;5051120;28;20068;-80
2022/11/09 12:34:10;;;;;;;9.65;2.45;;;14.40;99.90;;;;;;5053719;28;20045;-79
2022/11/09 12:36:58;;;;;;;7.85;2.40;;;14.40;99.90;;;;;;5038011;28;20521;-80
2022/11/09 12:39:43;;;;;;;9.70;2.47;;;14.40;99.90;;;;;;5028067;28;20048;-79
2022/11/09 12:42:14;;;;;;;10.25;2.30;;;14.40;99.90;;;;;;5049172;28;20045;-80
2022/11/09 12:45:02;;;;;;;13.30;2.67;;;14.40;99.90;;;;;;5042415;28;20076;-80
2022/11/09 12:47:35;;;;;;;13.30;2.30;;;14.40;99.90;;;;;;5049860;28;20084;-81
2022/11/09 12:50:02;;;;;;;8.75;2.10;;;14.40;99.90;;;;;;5049440;28;20072;-80
2022/11/09 12:52:28;;;;;;;11.20;2.78;;;14.30;99.90;;;;;;5052992;28;20040;-81
2022/11/09 12:54:58;;;;;;;6.43;2.10;;;14.30;99.90;;;;;;5048702;28;20056;-80